James Hamilton

Chefscout - Hull City
3 Dez 2028
Sonntag
Verarbeitung

Persönlichkeit

Anpassungsfähigkeit (4) Ehrgeiz (1) Kontroverse (6) Loyalität (1) Druck (18) Professionalität (11) Fairness (12) Temperament (11)

Profil

Trainerstil Demokratisch
Lizenz Kontinentale Pro
Entschlossenheit 13
Menschenführung 7
Motivation 10
Disziplin 7
Arbeitszufriedenheit
100%
Ermüdung
0%
Rolle Chefscout
Gehalt 68.3K p/W
Vertrag 14.03.2030

Leistung

Verhalten Gut
Trainingseffektivität
31%
Spielerentwicklung
65%
Verletzungsprävention
65%
Taktische Umsetzung
40%

Letzte Ereignisse

Nahm an einer Scouting-Besprechung teil jetzt
Empfahl ein Transferziel jetzt
Empfahl ein Transferziel jetzt
Empfahl ein Transferziel jetzt
Spieler begutachtet jetzt
Spieler begutachtet jetzt
Spieler begutachtet jetzt
Spieler begutachtet jetzt

Aktuell beobachtet

139
Spieler Verein Status Fähigkeit Vertrauen Beobachtet Zuletzt beobachtet Letzte Stimme
Amin Nabizada Exeter City Aktiv 123 / 122 40% 5 02.12.2028 -
Valentino Huertas Morón Aktiv 107 / 117 40% 4 02.12.2028 -
Diego León Rotherham United Aktiv 120 / 136 40% 1 02.12.2028 -
Sam Chambers Northampton Town Aktiv 110 / 129 40% 2 01.12.2028 -
Salvador Blopá Wolverhampton Aktiv 128 / 130 40% 3 01.12.2028 -
Tyler Silsby Salford City Aktiv 114 / 117 40% 1 01.12.2028 -
Mateus Mané Burnley Aktiv 145 / 155 40% 9 30.11.2028 -
Jacob Peter Hödl Sturm Graz Aktiv 126 / 124 40% 1 30.11.2028 -
Tahiel Peralta Racing Club Aktiv 123 / 122 40% 2 29.11.2028 -
Ryan Kavuma-McQueen Accrington Stanley Aktiv 120 / 128 40% 3 29.11.2028 -
Sean Steur Rotherham United Aktiv 138 / 131 40% 1 29.11.2028 -
Ibrahim Fullah Charlton Athletic Aktiv 120 / 125 40% 4 28.11.2028 -
Harrison Armstrong Ipswich Town Aktiv 140 / 142 40% 1 28.11.2028 -
Alex Verón Vélez Aktiv 122 / 121 40% 3 27.11.2028 -
Luka Andrade Montevideo City Torque Aktiv 111 / 107 40% 2 27.11.2028 -
Mateo Aguiar Tigre Aktiv 115 / 123 40% 1 27.11.2028 -
Lisandro Piñero Banfield Aktiv 118 / 123 40% 4 26.11.2028 -
Julian Hall Real Salt Lake Aktiv 112 / 124 40% 2 25.11.2028 -
Igor Tyjon Barrow AFC Aktiv 115 / 124 40% 4 23.11.2028 -
Eduardo Fernandes Benfica Aktiv 124 / 127 40% 1 23.11.2028 -
Trey Nyoni Rotherham United Aktiv 142 / 144 40% 4 22.11.2028 -
Sebastian Olderheim Stromsgodset Aktiv 102 / 108 40% 3 22.11.2028 -
Adrian Lahdo Empoli Aktiv 138 / 136 40% 1 22.11.2028 -
Harry Gray Harrogate Town Aktiv 127 / 139 40% 2 21.11.2028 -
Celías Ingenthron Platense Aktiv 126 / 125 40% 1 21.11.2028 -
Ayyoub Bouaddi Stoke City Aktiv 155 / 154 40% 2 17.11.2028 -
Santiago Segovia Rosario Central Aktiv 104 / 128 40% 1 17.11.2028 -
Ryan McAidoo Oldham Athletic Aktiv 134 / 138 40% 2 16.11.2028 -
Luke Brooke-Smith Chesterfield Aktiv 105 / 117 40% 1 16.11.2028 -
Chris Rigg West Ham United Aktiv 147 / 151 40% 2 15.11.2028 -
Matías Arias Vélez Aktiv 124 / 115 40% 2 14.11.2028 -
Fletcher Boyd Accrington Stanley Aktiv 111 / 114 40% 1 14.11.2028 -
Romelle Donovan Brentford Aktiv 131 / 138 40% 1 11.11.2028 Mehr Infos nötig
Ben Broggio Mansfield Town Aktiv 114 / 120 40% 1 08.11.2028 -
Kevin Filling AIK Aktiv 97 / 108 40% 1 08.11.2028 -
Robinio Vaz Modena Aktiv 125 / 127 40% 1 07.11.2028 -
Joel van den Berg Bloemfontein Celtic Aktiv 108 / 107 40% 1 06.11.2028 -
Ruben Ramos LA Galaxy Aktiv 93 / 100 40% 3 11.08.2028 -
Augusto Bando Ascoli Aktiv 111 / 117 40% 3 11.08.2028 -
Joachim Kayi Sanda Southampton Verloren 124 / 129 72% 1 07.08.2028 -
Reyes Cleary Bromley Verloren 123 / 123 72% 1 24.07.2028 -
Federico Matarán Giana Erminio Aktiv 105 / 110 40% 3 12.06.2028 -
Daniel Banjaqui Benfica Aktiv 119 / 125 40% 4 31.05.2028 -
Tobiáš Pališčák Zlin Aktiv 97 / 111 40% 5 31.05.2028 -
Luka Vušković Tottenham Aktiv 152 / 158 40% 1 30.05.2028 -
Jan Bürger Northampton Town Aktiv 113 / 120 40% 8 29.05.2028 -
Olivier Leroux Mouscron Aktiv 101 / 110 40% 8 29.05.2028 -
Jorthy Mokio ADO Den Haag Aktiv 130 / 137 40% 4 29.05.2028 -
Bernardo Lima Porto Aktiv 108 / 120 40% 8 28.05.2028 -
Josh Nichols Oldham Athletic Aktiv 125 / 122 40% 5 28.05.2028 -
Kiani Inge Groningen Aktiv 115 / 115 40% 7 26.05.2028 -
Giovanni Leoni Lincoln City Aktiv 146 / 141 40% 5 25.05.2028 -
Andrey Ivlev Nizhniy Novgorod Aktiv 106 / 117 40% 4 24.05.2028 -
Ronan Kpakio AC Milan Aktiv 118 / 131 40% 3 22.05.2028 -
Amine Boukamir Charleroi Aktiv 106 / 115 40% 1 20.05.2028 -
Tyler Fletcher Rotherham United Aktiv 114 / 112 40% 3 11.05.2028 -
Riquelme Thompson-Jones Accrington Stanley Aktiv 103 / 119 40% 1 11.05.2028 -
Honest Ahanor Atalanta Aktiv 133 / 141 40% 3 25.04.2028 -
Josh Acheampong Everton Aktiv 136 / 140 40% 3 24.04.2028 -
Tobías Ramírez River Plate Aktiv 133 / 137 40% 2 22.04.2028 -
Ayden Heaven Portsmouth Aktiv 141 / 149 40% 2 15.04.2028 -
Miguel Figueiredo Benfica Aktiv 112 / 124 40% 4 14.04.2028 -
Olivier Mambwa Young Boys Aktiv 113 / 116 40% 2 19.03.2028 -
Matvey Bardachev Zenit Aktiv 103 / 112 40% 1 12.03.2028 -
Nejc Viher NK Maribor Aktiv 112 / 130 40% 1 12.03.2028 -
Bazoumana Touré Newcastle United Aktiv 151 / 155 40% 3 24.01.2028 -
Gorka Gorosabel Real Sociedad Aktiv 116 / 122 40% 1 24.01.2028 -
Toni Fruk Talleres Aktiv 132 / 133 89% 1 01.01.2028 Befürworten
Mao Hosoya Santos Aktiv 134 / 135 67% 1 01.01.2028 Befürworten
Senny Mayulu Paris Saint-Germain Aktiv 142 / 158 40% 2 30.12.2027 -
Eli Junior Kroupi Bournemouth Aktiv 151 / 152 40% 3 29.12.2027 -
Sindre Walle Egeli Udinese Aktiv 144 / 145 40% 3 29.12.2027 -
Dylan Cabral Arsenal Aktiv 92 / 116 40% 1 27.12.2027 -
Matias Siltanen Malmo FF Aktiv 116 / 138 40% 2 26.12.2027 -
Joel Medina Independiente Aktiv 115 / 125 40% 1 26.12.2027 -
Luca Williams-Barnett Walsall Aktiv 115 / 124 40% 2 24.12.2027 -
Gianluca Prestianni Benfica Aktiv 141 / 142 40% 1 22.12.2027 -
Victor Hernandez Santa Fe Aktiv 130 / 116 40% 5 21.12.2027 -
Luighi Palmeiras Aktiv 116 / 119 40% 1 21.12.2027 -
Shea Lacey Crystal Palace Verloren 130 / 138 40% 1 18.12.2027 -
Nana Nuhu WAFA Aktiv 97 / 93 40% 1 16.12.2027 -
Gabe Forsyth Colchester United Aktiv 103 / 122 40% 2 14.12.2027 -
Pedro Baltika Aktiv 132 / 138 40% 1 13.12.2027 -
Babis Kostoulas Oxford United Aktiv 137 / 148 40% 1 13.12.2027 -
Archie Gray Southampton Aktiv 155 / 161 40% 4 12.12.2027 -
Rio Ngumoha Plymouth Argyle Aktiv 144 / 142 40% 1 12.12.2027 -
Tiago Pucciarelli IF Elfsborg Aktiv 105 / 106 40% 2 11.12.2027 -
Jonny Shore New York City Aktiv 105 / 97 40% 1 10.12.2027 -
Pedro de la Vega Columbus Crew Aktiv 133 / 134 95% 1 01.06.2027 Befürworten
Aaron Collins Milton Keynes Dons Aktiv 122 / 111 40% 1 31.05.2027 -
Caleb Yirenkyi Coventry City Aktiv 134 / 143 40% 6 30.05.2027 -
Zane Albarus Shrewsbury Town Aktiv 95 / 104 40% 3 29.05.2027 -
Daniel Dennis Ikorodu City Aktiv 91 / 101 40% 3 29.05.2027 -
Gonçalo Oliveira Benfica Aktiv 110 / 121 40% 1 29.05.2027 -
Jenson Jones Walsall Aktiv 101 / 96 40% 3 28.05.2027 -
Charlie Gray Fleetwood Town Aktiv 86 / 89 40% 2 28.05.2027 -
Ezra Mayers West Ham United Aktiv 117 / 118 40% 2 26.05.2027 -
Olaniyi Saheed Kwara United Aktiv 100 / 94 40% 2 26.05.2027 -
Daniel Idoko Ikorodu City Aktiv 86 / 90 40% 2 24.05.2027 -
Pedro Vian Seewald Dolomiti Bellunesi Aktiv 90 / 98 40% 1 24.05.2027 -
Maldini Kacurri Grimsby Town Aktiv 86 / 90 40% 3 21.05.2027 -
Sascha Britschgi AC Milan Aktiv 127 / 123 40% 3 21.05.2027 -
Tommaso Cecotti Carpi Aktiv 93 / 97 40% 2 21.05.2027 -
Konta Ismaily Aktiv 86 / 94 40% 2 17.05.2027 -
Hosea Michael Remo Stars Aktiv 88 / 104 40% 1 15.05.2027 -
Kamaldeen Atiemo Wa All Stars Aktiv 98 / 105 40% 2 11.05.2027 -
Enzo Koffi Olympique de Marseille Aktiv 117 / 111 40% 1 08.05.2027 -
Lucas Bergvall Tottenham Aktiv 140 / 154 40% 3 07.05.2027 -
Kazunari Kita Real Sociedad Aktiv 95 / 105 40% 1 06.05.2027 -
Riley Owen Stevenage Aktiv 101 / 106 40% 3 04.05.2027 -
Leandro Martins Benfica Aktiv 89 / 93 40% 3 01.05.2027 -
Afriyie Sulemana WAFA Aktiv 92 / 102 40% 2 23.04.2027 -
Samuele di Benedetto Twente Aktiv 115 / 121 40% 2 18.04.2027 -
Andrea Bertoncini Triestina Aktiv 88 / 101 40% 1 18.04.2027 -
Bradley de Jesus Nacional Aktiv 93 / 94 40% 2 15.04.2027 -
Ahmed Akinyele Remo Stars Aktiv 105 / 98 40% 1 14.04.2027 -
Alessandro Zoboletti Sambenedettese Aktiv 93 / 89 40% 1 09.04.2027 -
James Dornelly Peterborough United Aktiv 101 / 105 40% 3 06.04.2027 -
Tiago Freitas Benfica Aktiv 106 / 121 40% 1 06.04.2027 -
Sampson Dweh Mallorca Aktiv 133 / 134 66% 1 01.01.2027 Befürworten
Morgan Guilavogui Real Salt Lake Aktiv 117 / 115 40% 1 31.12.2026 -
Wilson Isidor Sunderland Aktiv 140 / 143 40% 1 31.12.2026 -
Reece Braithwaite Bloemfontein Celtic Aktiv 93 / 113 40% 3 30.12.2026 -
Reed Baker-Whiting Nashville SC Aktiv 106 / 105 40% 2 29.12.2026 -
Diogo Monteiro Tondela Aktiv 104 / 108 40% 1 28.12.2026 -
Dean Jali Platinum Stars Aktiv 94 / 96 40% 1 28.12.2026 -
Simphiwe Selepe Orlando Pirates Aktiv 98 / 120 40% 4 20.12.2026 -
Emmanuel Mathias Ikorodu City Aktiv 91 / 110 40% 1 16.12.2026 -
Louis Leroux FC Nantes Aktiv 121 / 133 40% 1 11.12.2026 -
Philippe Ndinga Philadelphia Union Aktiv 103 / 113 40% 2 20.11.2026 -
Pedro Bravo FC Midtjylland Aktiv 130 / 116 40% 1 18.11.2026 -
Morrison Agyemang Charlotte Football Club Aktiv 109 / 117 40% 1 18.11.2026 -
Mbekezeli Mbokazi Chicago Fire Aktiv 126 / 132 40% 1 13.10.2026 -
Joel Ezra Enyimba Aktiv 86 / 85 40% 1 13.10.2026 -
Reuell Walters Luton Town Aktiv 101 / 120 40% 1 08.10.2026 -
Cemran Dansin Orlando Pirates Aktiv 115 / 104 40% 2 06.10.2026 -
Federico Chiesa Liverpool Aktiv 158 / 151 40% 1 31.08.2026 -
Nathan Ordaz DC United Aktiv 106 / 104 40% 1 31.08.2026 -
Jacob Bartlett Sporting Kansas City Aktiv 96 / 105 40% 1 18.08.2026 -